Brownsville, TX

3:04 PM CDT on September 26, 2017 (GMT -0500)
West Brownsville | | Change Station

Elev 35 ft 25.92 °N, 97.52 °W | Updated 45 seconds ago

Partly Cloudy
Partly Cloudy
91.0 °F
Feels Like 106 °F
N
7.0
Wind Variable Wind from East
Gusts 13.0 mph

Today
High -- | Low -- °F
--% Chance of Precip.
Yesterday
High -- | Low -- °F
Precip. -- in
Pressure 29.76 in
Visibility 10.0 miles
Clouds Scattered Clouds 2900 ft
Heat Index 106 °F
Dew Point 78 °F
Humidity 66%
Rainfall 0.00 in
Snow Depth Not available.
7:20 AM 7:21 PM
Waxing Crescent, 38% visible
METAR KBRO 261953Z 12014KT 10SM SCT029 33/25 A2976 RMK AO2 SLP078 T03280250
Pressure 29.76 in
Visibility 10.0 miles
Clouds Scattered Clouds 2900 ft
Heat Index 106 °F
Dew Point 78 °F
Humidity 66%
Rainfall 0.00 in
Snow Depth Not available.
7:20 AM 7:21 PM
Waxing Crescent, 38% visible
METAR KBRO 261953Z 12014KT 10SM SCT029 33/25 A2976 RMK AO2 SLP078 T03280250

Get Severe Weather Alerts

Thanks for signing up!

Be on the lookout for a verification email in your inbox.

You'll start receiving the daily forecast at 6 AM.

×

10-Day Weather Forecast

Almanac

Astronomy

Sep. 26, 2017 Rise Set
Actual Time
Civil Twilight
Nautical Twilight
Astronomical Twilight
Moon
Length of Visible Light
Length of Day
Tomorrow will be .
, % of the Moon is Illuminated

Today's Extremes

State Highs State Lows

Community

WunderPhotos

Category 6

Welcome to Category 6. This is the collective home for Weather Underground's featured writeups by Dr. Jeff Masters (right), Bob Henson (left), Chris Burt, and other regular contributors.

Nearby

Air Quality

  Air Quality AQ Index Pollutant
Not available.

Snow Depth

Station Depth Elevation

Earthquake Activity

City Distance Mag. Time & Date
Minimum magnitude displayed is 2.5.

Coastal Water Temperatures

Place Temperature

Stations

Nearby Weather Stations

Station Location Temp. Windchill Dew Point Humidity Wind Precip. Elev Updated Type
                   

Watches & Warnings

There are currently no watches in effect.